createdAt,value
2023-01-25T00:00:08.985Z,21.70
2023-01-25T00:03:22.282Z,20.10
2023-01-25T00:07:18.025Z,17.23
2023-01-25T00:14:45.854Z,20.02
2023-01-25T00:18:24.566Z,19.83
2023-01-25T00:21:23.743Z,24.50
2023-01-25T00:24:08.807Z,19.42
2023-01-25T00:27:49.035Z,19.52
2023-01-25T00:30:41.204Z,19.95
2023-01-25T00:33:22.210Z,20.58
2023-01-25T00:36:31.541Z,20.77
2023-01-25T00:43:23.581Z,22.27
2023-01-25T00:51:16.023Z,20.17
2023-01-25T00:59:04.848Z,19.10
2023-01-25T01:06:32.411Z,20.42
2023-01-25T01:09:53.420Z,23.73
2023-01-25T01:17:04.184Z,22.15
2023-01-25T01:20:10.465Z,20.02
2023-01-25T01:23:31.753Z,22.50
2023-01-25T01:26:10.110Z,23.52
2023-01-25T01:28:45.758Z,21.45
2023-01-25T01:31:19.588Z,21.23
2023-01-25T01:34:06.853Z,23.75
2023-01-25T01:36:45.653Z,24.73
2023-01-25T01:39:20.534Z,25.55
2023-01-25T01:41:55.485Z,22.92
2023-01-25T01:44:55.130Z,21.60
2023-01-25T01:48:30.890Z,24.48
2023-01-25T01:52:10.649Z,26.10
2023-01-25T01:55:23.359Z,23.77
2023-01-25T01:58:38.792Z,24.63
2023-01-25T02:02:10.278Z,21.35
2023-01-25T02:05:02.199Z,20.67
2023-01-25T02:11:18.153Z,27.23
2023-01-25T02:13:50.086Z,25.10
2023-01-25T02:16:50.233Z,22.00
2023-01-25T02:19:42.673Z,26.65
2023-01-25T02:23:11.307Z,24.90
2023-01-25T02:25:51.418Z,22.63
2023-01-25T02:31:20.006Z,23.70
2023-01-25T02:34:37.007Z,25.58
2023-01-25T02:44:49.092Z,22.17
2023-01-25T02:52:16.567Z,25.65
2023-01-25T02:56:22.620Z,25.70
2023-01-25T02:59:38.759Z,31.83
2023-01-25T03:02:54.564Z,25.63
2023-01-25T03:05:49.429Z,29.75
2023-01-25T03:08:55.417Z,26.35
2023-01-25T03:11:41.462Z,28.15
2023-01-25T03:14:11.469Z,29.70
2023-01-25T03:16:49.279Z,35.97
2023-01-25T03:23:48.398Z,33.88
2023-01-25T03:30:33.487Z,31.67
2023-01-25T03:33:09.665Z,35.22
2023-01-25T03:35:39.256Z,45.15
2023-01-25T03:39:01.623Z,57.00
2023-01-25T03:41:45.083Z,38.10
2023-01-25T03:44:17.353Z,51.97
2023-01-25T03:47:28.379Z,54.97
2023-01-25T03:49:57.940Z,42.95
2023-01-25T04:04:58.612Z,36.55
2023-01-25T04:08:27.152Z,54.03
2023-01-25T04:16:20.832Z,44.17
2023-01-25T04:19:21.830Z,45.05
2023-01-25T04:22:22.965Z,47.17
2023-01-25T04:24:53.021Z,46.20
2023-01-25T04:28:16.310Z,52.55
2023-01-25T04:39:23.002Z,42.75
2023-01-25T04:42:30.215Z,44.13
2023-01-25T04:45:41.830Z,41.85
2023-01-25T04:48:20.796Z,51.55
2023-01-25T04:50:56.430Z,43.85
2023-01-25T04:53:33.949Z,43.28
2023-01-25T04:56:07.513Z,38.15
2023-01-25T05:06:55.748Z,42.95
2023-01-25T05:10:28.160Z,47.63
2023-01-25T05:15:12.485Z,52.53
2023-01-25T05:18:47.827Z,41.50
2023-01-25T05:22:26.600Z,46.67
2023-01-25T05:26:47.114Z,41.67
2023-01-25T05:29:51.741Z,45.15
2023-01-25T05:32:32.675Z,42.83
2023-01-25T05:35:02.464Z,44.58
2023-01-25T05:38:44.015Z,41.20
2023-01-25T05:41:15.302Z,50.85
2023-01-25T05:43:51.684Z,35.90
2023-01-25T05:46:21.229Z,43.13
2023-01-25T05:48:56.305Z,50.28
2023-01-25T05:51:31.278Z,41.00
2023-01-25T05:54:06.745Z,46.17
2023-01-25T05:59:25.151Z,38.55
2023-01-25T06:01:59.268Z,50.50
2023-01-25T06:07:39.354Z,49.92
2023-01-25T06:13:43.367Z,44.83
2023-01-25T06:16:19.079Z,48.35
2023-01-25T06:19:57.334Z,47.95
2023-01-25T06:23:51.264Z,48.90
2023-01-25T06:26:55.241Z,46.22
2023-01-25T06:29:24.847Z,47.10
2023-01-25T06:31:59.154Z,44.53
2023-01-25T06:34:45.122Z,46.10
2023-01-25T06:37:34.701Z,43.25
2023-01-25T06:40:11.817Z,43.13
2023-01-25T06:42:52.342Z,39.17
2023-01-25T06:46:16.134Z,60.28
2023-01-25T06:48:45.341Z,47.10
2023-01-25T06:52:05.549Z,53.38
2023-01-25T06:57:33.303Z,45.47
2023-01-25T07:00:03.136Z,47.58
2023-01-25T07:03:34.071Z,42.78
2023-01-25T07:09:24.609Z,43.97
2023-01-25T07:12:18.384Z,43.25
2023-01-25T07:14:51.296Z,54.65
2023-01-25T07:17:26.167Z,57.40
2023-01-25T07:20:04.069Z,64.20
2023-01-25T07:22:35.590Z,53.17
2023-01-25T07:25:12.049Z,60.15
2023-01-25T07:28:43.240Z,55.45
2023-01-25T07:31:45.002Z,77.93
2023-01-25T07:34:41.473Z,63.97
2023-01-25T07:37:47.364Z,60.75
2023-01-25T07:48:02.361Z,62.22
2023-01-25T07:50:42.500Z,78.07
2023-01-25T07:53:11.805Z,76.30
2023-01-25T07:59:19.813Z,84.35
2023-01-25T08:02:38.915Z,83.57
2023-01-25T08:05:20.169Z,65.28
2023-01-25T08:08:18.346Z,90.25
2023-01-25T08:11:03.636Z,74.45
2023-01-25T08:13:37.747Z,66.13
2023-01-25T08:16:09.718Z,75.00
2023-01-25T08:18:37.936Z,73.70
2023-01-25T08:21:13.487Z,66.47
2023-01-25T08:23:46.490Z,68.88
2023-01-25T08:26:19.659Z,73.07
2023-01-25T08:35:47.128Z,70.18
2023-01-25T08:42:09.436Z,64.13
2023-01-25T09:01:32.385Z,80.73
2023-01-25T09:04:07.567Z,63.10
2023-01-25T09:06:36.737Z,53.17
2023-01-25T09:09:06.605Z,60.58
2023-01-25T09:11:41.153Z,51.40
2023-01-25T09:14:57.977Z,51.33
2023-01-25T09:21:06.404Z,69.65
2023-01-25T09:31:24.730Z,78.73
2023-01-25T09:34:35.167Z,66.60
2023-01-25T09:37:19.135Z,69.55
2023-01-25T09:39:51.450Z,85.35
2023-01-25T09:42:54.831Z,66.95
2023-01-25T09:46:05.242Z,72.85
2023-01-25T09:49:02.848Z,67.05
2023-01-25T10:13:53.263Z,63.03
2023-01-25T10:17:05.225Z,66.22
2023-01-25T10:20:24.933Z,62.40
2023-01-25T10:23:16.936Z,63.25
2023-01-25T10:26:01.539Z,70.32
2023-01-25T10:29:00.509Z,59.58
2023-01-25T10:32:04.745Z,60.53
2023-01-25T10:35:43.735Z,47.33
2023-01-25T10:38:46.761Z,56.58
2023-01-25T10:45:27.003Z,62.95
2023-01-25T10:48:13.187Z,62.55
2023-01-25T10:51:02.158Z,61.20
2023-01-25T10:53:46.132Z,47.67
2023-01-25T10:56:32.667Z,54.65
2023-01-25T10:59:28.899Z,48.60
2023-01-25T11:02:56.652Z,48.15
2023-01-25T11:06:07.063Z,49.03
2023-01-25T11:09:11.187Z,51.85
2023-01-25T11:11:44.535Z,41.38
2023-01-25T11:14:33.622Z,39.13
2023-01-25T11:17:07.107Z,42.38
2023-01-25T11:19:42.923Z,37.38
2023-01-25T11:22:21.725Z,32.88
2023-01-25T11:24:53.645Z,47.20
2023-01-25T11:27:52.029Z,34.63
2023-01-25T11:30:21.669Z,33.42
2023-01-25T11:33:22.268Z,30.63
2023-01-25T11:36:39.480Z,24.08
2023-01-25T11:40:10.385Z,26.75
2023-01-25T11:43:41.133Z,28.60
2023-01-25T11:48:44.503Z,20.90
2023-01-25T11:52:22.851Z,21.45
2023-01-25T11:55:11.737Z,23.88
2023-01-25T11:58:05.511Z,18.25
2023-01-25T12:01:40.050Z,22.27
2023-01-25T12:04:47.480Z,25.75
2023-01-25T12:08:43.562Z,17.08
2023-01-25T12:11:32.218Z,19.23
2023-01-25T12:14:25.688Z,21.95
2023-01-25T12:17:41.383Z,28.70
2023-01-25T12:20:34.344Z,21.30
2023-01-25T12:24:04.070Z,25.10
2023-01-25T12:26:56.455Z,25.55
2023-01-25T12:29:54.283Z,25.08
2023-01-25T12:33:30.689Z,27.23
2023-01-25T12:36:39.879Z,27.30
2023-01-25T12:39:24.982Z,24.48
2023-01-25T12:42:05.179Z,24.10
2023-01-25T12:45:20.145Z,24.17
2023-01-25T12:51:53.875Z,23.23
2023-01-25T12:54:56.143Z,29.33
2023-01-25T12:58:11.841Z,33.42
2023-01-25T13:01:33.771Z,29.80
2023-01-25T13:04:41.098Z,30.83
2023-01-25T13:09:31.256Z,35.42
2023-01-25T13:11:55.696Z,42.28
2023-01-25T13:14:55.589Z,39.20
2023-01-25T13:17:38.894Z,42.25
2023-01-25T13:20:43.531Z,37.90
2023-01-25T13:23:36.591Z,38.15
2023-01-25T13:26:57.885Z,35.53
2023-01-25T13:29:48.618Z,32.20
2023-01-25T13:32:32.867Z,26.33
2023-01-25T13:35:03.185Z,35.65
2023-01-25T13:37:37.977Z,35.58
2023-01-25T13:40:31.307Z,35.28
2023-01-25T13:43:23.272Z,37.17
2023-01-25T13:46:19.763Z,28.33
2023-01-25T13:49:08.873Z,26.40
2023-01-25T13:52:13.806Z,22.50
2023-01-25T13:58:11.983Z,34.03
2023-01-25T14:01:19.132Z,40.13
2023-01-25T14:03:53.797Z,33.50
2023-01-25T14:06:27.061Z,46.25
2023-01-25T14:09:16.201Z,34.92
2023-01-25T14:11:54.852Z,37.00
2023-01-25T14:14:32.396Z,44.83
2023-01-25T14:17:22.958Z,43.38
2023-01-25T14:20:17.927Z,46.97
2023-01-25T14:22:51.167Z,54.83
2023-01-25T14:26:13.799Z,57.40
2023-01-25T14:28:34.026Z,37.72
2023-01-25T14:31:42.269Z,42.20
2023-01-25T14:34:29.503Z,62.88
2023-01-25T14:37:32.688Z,49.05
2023-01-25T14:40:47.457Z,66.93
2023-01-25T18:40:24.508Z,38.20
2023-01-25T18:42:52.944Z,35.10
2023-01-25T18:54:53.190Z,46.73
2023-01-25T18:57:20.760Z,43.20
2023-01-25T18:59:47.995Z,41.40
2023-01-25T19:02:16.576Z,46.55
2023-01-25T19:04:44.268Z,36.67
2023-01-25T19:07:11.822Z,41.63
2023-01-25T19:09:38.976Z,37.58
2023-01-25T19:12:06.360Z,37.53
2023-01-25T19:14:33.514Z,30.48
2023-01-25T19:17:00.704Z,33.70
2023-01-25T19:19:33.664Z,30.15
2023-01-25T19:22:01.732Z,27.77
2023-01-25T19:24:29.022Z,27.95
2023-01-25T19:26:56.385Z,30.08
2023-01-25T19:29:23.597Z,34.40
2023-01-25T19:31:50.884Z,30.48
2023-01-25T19:34:18.183Z,29.50
2023-01-25T19:36:53.861Z,33.10
2023-01-25T19:39:21.412Z,22.70
2023-01-25T19:41:51.036Z,27.73
2023-01-25T19:44:18.275Z,25.80
2023-01-25T19:46:45.509Z,23.40
2023-01-25T19:49:15.897Z,24.88
2023-01-25T19:51:48.899Z,28.55
2023-01-25T19:54:17.710Z,24.40
2023-01-25T19:56:47.441Z,29.33
2023-01-25T19:59:20.601Z,28.67
2023-01-25T20:01:47.907Z,20.08
2023-01-25T20:04:17.708Z,24.23
2023-01-25T20:06:44.931Z,20.25
2023-01-25T20:09:14.109Z,21.90
2023-01-25T20:11:41.719Z,26.10
2023-01-25T20:14:12.408Z,18.27
2023-01-25T20:16:40.036Z,19.48
2023-01-25T20:19:07.390Z,18.88
2023-01-25T20:21:38.166Z,20.52
2023-01-25T20:24:06.532Z,27.17
2023-01-25T20:26:37.423Z,25.67
2023-01-25T20:29:05.937Z,21.98
2023-01-25T20:31:37.626Z,19.90
2023-01-25T20:34:17.148Z,30.50
2023-01-25T20:36:45.283Z,23.17
2023-01-25T20:39:15.079Z,28.10
2023-01-25T20:41:42.630Z,24.40
2023-01-25T20:44:11.532Z,27.58
2023-01-25T20:46:40.715Z,29.80
2023-01-25T20:49:11.235Z,29.33
2023-01-25T20:51:38.465Z,31.95
2023-01-25T20:54:06.385Z,32.45
2023-01-25T20:56:33.650Z,36.65
2023-01-25T20:59:00.914Z,29.80
2023-01-25T21:01:36.648Z,30.27
2023-01-25T21:04:06.216Z,26.85
2023-01-25T21:06:35.523Z,29.75
2023-01-25T21:09:04.024Z,27.38
2023-01-25T21:11:31.966Z,26.25
2023-01-25T21:13:59.752Z,28.08
2023-01-25T21:16:27.258Z,38.35
2023-01-25T21:18:57.548Z,22.58
2023-01-25T21:21:27.993Z,32.90
2023-01-25T21:23:57.851Z,26.13
2023-01-25T21:26:30.508Z,25.80
2023-01-25T21:28:59.475Z,25.63
2023-01-25T21:31:29.639Z,31.17
2023-01-25T21:33:57.117Z,38.20
2023-01-25T21:36:25.321Z,35.20
2023-01-25T21:38:54.916Z,35.40
2023-01-25T21:41:24.929Z,37.97
2023-01-25T21:44:15.914Z,32.85
2023-01-25T21:46:51.365Z,33.28
2023-01-25T21:49:41.851Z,32.75
2023-01-25T21:52:09.229Z,35.28
2023-01-25T21:54:38.092Z,32.95
2023-01-25T21:57:10.634Z,35.35
2023-01-25T21:59:40.761Z,40.95
2023-01-25T22:02:12.335Z,32.92
2023-01-25T22:04:39.616Z,35.38
2023-01-25T22:07:08.901Z,35.55
2023-01-25T22:09:36.739Z,32.63
2023-01-25T22:12:04.154Z,34.55
2023-01-25T22:14:31.396Z,32.25
2023-01-25T22:16:58.682Z,32.00
2023-01-25T22:19:26.050Z,28.67
2023-01-25T22:21:53.324Z,28.50
2023-01-25T22:24:20.687Z,30.05
2023-01-25T22:26:58.633Z,23.92
2023-01-25T22:29:26.648Z,24.02
2023-01-25T22:31:53.961Z,21.63
2023-01-25T22:34:21.172Z,22.83
2023-01-25T22:36:48.806Z,21.17
2023-01-25T22:39:16.108Z,23.05
2023-01-25T22:41:43.294Z,18.30
2023-01-25T22:44:11.117Z,25.27
2023-01-25T22:46:38.453Z,29.80
2023-01-25T22:49:05.678Z,29.80
2023-01-25T22:51:33.002Z,26.63
2023-01-25T22:54:00.662Z,23.17
2023-01-25T22:56:31.792Z,21.38
2023-01-25T22:59:00.487Z,23.95
2023-01-25T23:01:32.981Z,17.13
2023-01-25T23:04:01.313Z,19.60
2023-01-25T23:06:34.425Z,21.13
2023-01-25T23:09:04.916Z,19.85
2023-01-25T23:11:38.179Z,19.67
2023-01-25T23:14:25.977Z,14.30
2023-01-25T23:16:53.298Z,12.40
2023-01-25T23:19:20.517Z,18.17
2023-01-25T23:21:47.718Z,15.02
2023-01-25T23:24:14.985Z,21.80
2023-01-25T23:26:46.588Z,15.77
2023-01-25T23:29:14.668Z,16.70
2023-01-25T23:31:42.044Z,19.30
2023-01-25T23:34:11.869Z,22.08
2023-01-25T23:36:39.776Z,13.15
2023-01-25T23:39:07.119Z,22.85
2023-01-25T23:41:34.351Z,4.38
2023-01-25T23:44:02.035Z,19.13
2023-01-25T23:46:29.564Z,17.50
2023-01-25T23:48:56.865Z,15.40
2023-01-25T23:51:24.134Z,11.15
2023-01-25T23:53:53.493Z,13.25
2023-01-25T23:56:21.894Z,11.57
2023-01-25T23:58:49.469Z,13.75
